Time;durP1;ratioP1;P1;durP2;ratioP2;P2;SDS_P1;SDS_P2;PMS_P1;PMS_P2;Temp;Humidity;BMP_temperature;BMP_pressure;BME280_temperature;BME280_humidity;BME280_pressure;Samples;Min_cycle;Max_cycle;Signal;HPM_P1;HPM_P2
2021/08/19 00:01:18;;;;;;;5.72;3.28;;;;;;;16.42;100.00;97528.91;5069433;28;20036;-77
2021/08/19 00:03:45;;;;;;;5.70;3.63;;;;;;;16.38;100.00;97519.03;5084141;28;20076;-76
2021/08/19 00:06:12;;;;;;;7.10;3.72;;;;;;;16.40;100.00;97524.94;5067610;28;20056;-76
2021/08/19 00:08:40;;;;;;;5.43;3.95;;;;;;;16.38;100.00;97524.50;5069662;28;20041;-77
2021/08/19 00:11:08;;;;;;;5.60;4.15;;;;;;;16.36;100.00;97522.16;5051603;28;20041;-77
2021/08/19 00:13:35;;;;;;;6.03;3.92;;;;;;;16.37;100.00;97536.56;5067268;28;20049;-77
2021/08/19 00:16:03;;;;;;;5.50;3.88;;;;;;;16.35;100.00;97522.47;5068102;28;20399;-77
2021/08/19 00:18:29;;;;;;;5.53;3.97;;;;;;;16.34;100.00;97520.88;5067715;28;20529;-77
2021/08/19 00:20:56;;;;;;;4.95;3.83;;;;;;;16.34;100.00;97521.69;5067688;28;20048;-77
2021/08/19 00:23:23;;;;;;;6.82;3.67;;;;;;;16.32;100.00;97521.25;5069175;28;20051;-78
2021/08/19 00:25:50;;;;;;;4.35;3.47;;;;;;;16.31;100.00;97522.38;5067639;28;20029;-78
2021/08/19 00:28:18;;;;;;;5.95;4.00;;;;;;;16.32;100.00;97515.00;5068749;28;20453;-77
2021/08/19 00:30:45;;;;;;;4.50;3.50;;;;;;;16.31;100.00;97519.66;5084672;28;20493;-78
2021/08/19 00:33:12;;;;;;;4.68;3.50;;;;;;;16.29;100.00;97521.16;5066070;28;20086;-77
2021/08/19 00:35:39;;;;;;;8.65;3.92;;;;;;;16.27;100.00;97521.53;5068313;28;20037;-78
2021/08/19 00:38:07;;;;;;;5.53;4.00;;;;;;;16.23;100.00;97523.41;5068848;28;20433;-77
2021/08/19 00:40:34;;;;;;;5.53;3.92;;;;;;;16.21;100.00;97517.47;5083881;28;20410;-76
2021/08/19 00:43:05;;;;;;;5.65;3.90;;;;;;;16.22;100.00;97524.53;5067244;28;20048;-77
2021/08/19 00:45:34;;;;;;;6.70;3.90;;;;;;;16.21;100.00;97517.47;5066725;28;20050;-77
2021/08/19 00:48:02;;;;;;;7.07;3.95;;;;;;;16.17;100.00;97520.13;5083880;28;20059;-78
2021/08/19 00:50:29;;;;;;;5.28;4.00;;;;;;;16.20;100.00;97526.81;5067042;28;20055;-77
2021/08/19 00:53:00;;;;;;;8.23;4.00;;;;;;;16.17;100.00;97520.13;5067993;28;20513;-77
2021/08/19 00:55:27;;;;;;;5.38;3.90;;;;;;;16.18;100.00;97524.44;5067909;28;20045;-77
2021/08/19 00:57:54;;;;;;;7.97;3.97;;;;;;;16.22;100.00;97516.34;5084458;28;20040;-77
2021/08/19 01:00:21;;;;;;;7.70;3.80;;;;;;;16.23;100.00;97520.66;5070686;28;20071;-76
2021/08/19 01:02:50;;;;;;;5.55;3.78;;;;;;;16.23;100.00;97530.78;5069192;28;20044;-77
2021/08/19 01:05:21;;;;;;;6.30;4.22;;;;;;;16.23;100.00;97526.91;5068025;28;20037;-77
2021/08/19 01:07:48;;;;;;;5.57;3.72;;;;;;;16.20;100.00;97519.44;5068931;28;20040;-77
2021/08/19 01:10:15;;;;;;;6.38;3.80;;;;;;;16.23;100.00;97515.19;5084443;28;20045;-77
2021/08/19 01:12:44;;;;;;;4.30;3.63;;;;;;;16.18;100.00;97521.69;5068697;28;20048;-76
2021/08/19 01:15:14;;;;;;;9.80;4.35;;;;;;;16.17;100.00;97522.88;5066784;28;20045;-76
2021/08/19 01:17:40;;;;;;;5.57;3.70;;;;;;;16.17;100.00;97522.06;5051001;28;20056;-78
2021/08/19 01:20:08;;;;;;;6.50;4.07;;;;;;;16.17;100.00;97519.34;5067635;28;20044;-78
2021/08/19 01:22:35;;;;;;;7.90;3.65;;;;;;;16.20;100.00;97513.97;5067523;28;20048;-76
2021/08/19 01:25:02;;;;;;;5.85;3.45;;;;;;;16.19;100.00;97519.75;5083778;28;20412;-76
2021/08/19 01:27:30;;;;;;;5.55;3.38;;;;;;;16.20;100.00;97516.69;5068201;28;20501;-76
2021/08/19 01:29:58;;;;;;;6.60;3.40;;;;;;;16.21;100.00;97510.06;5067337;28;20517;-76
2021/08/19 01:32:26;;;;;;;5.85;3.28;;;;;;;16.21;100.00;97520.19;5067021;28;20048;-76
2021/08/19 01:34:55;;;;;;;3.55;2.83;;;;;;;16.23;100.00;97510.50;5066411;28;20040;-77
2021/08/19 01:37:21;;;;;;;4.63;3.50;;;;;;;16.25;100.00;97523.81;5067148;28;20056;-79
2021/08/19 01:39:48;;;;;;;3.53;2.83;;;;;;;16.23;100.00;97511.66;5067397;28;20045;-78
2021/08/19 01:42:15;;;;;;;5.05;2.70;;;;;;;16.21;100.00;97512.00;5065950;28;20405;-77
2021/08/19 01:44:42;;;;;;;4.65;3.05;;;;;;;16.23;100.00;97502.31;5082230;28;20511;-77
2021/08/19 01:47:13;;;;;;;5.90;3.40;;;;;;;16.23;100.00;97500.75;5066911;28;20059;-77
2021/08/19 01:49:41;;;;;;;2.97;2.60;;;;;;;16.22;100.00;97502.69;5082644;28;20083;-77
2021/08/19 01:52:09;;;;;;;6.85;3.25;;;;;;;16.20;100.00;97504.97;5067823;28;20044;-77
2021/08/19 01:54:36;;;;;;;4.90;2.95;;;;;;;16.16;100.00;97501.34;5070291;28;20048;-76
2021/08/19 01:57:02;;;;;;;5.45;3.28;;;;;;;16.17;100.00;97501.00;5069406;28;20052;-77
2021/08/19 01:59:29;;;;;;;4.03;3.10;;;;;;;16.15;100.00;97497.06;5053373;28;20364;-78
2021/08/19 02:02:00;;;;;;;4.60;3.33;;;;;;;16.11;100.00;97496.16;5071314;28;20156;-77
2021/08/19 02:04:28;;;;;;;5.07;3.53;;;;;;;16.13;100.00;97494.66;5052404;28;20094;-77
2021/08/19 02:06:55;;;;;;;7.60;3.88;;;;;;;16.12;100.00;97500.50;5053827;28;20531;-77
2021/08/19 02:09:22;;;;;;;6.82;3.85;;;;;;;16.13;100.00;97499.34;5071207;28;20799;-77
2021/08/19 02:11:50;;;;;;;5.32;3.85;;;;;;;16.13;100.00;97493.88;5069466;28;20041;-77
2021/08/19 02:14:19;;;;;;;5.03;3.58;;;;;;;16.15;100.00;97500.59;5070682;28;20036;-77
2021/08/19 02:16:46;;;;;;;6.13;3.70;;;;;;;16.19;100.00;97504.19;5069684;28;20040;-76
2021/08/19 02:19:12;;;;;;;5.28;3.70;;;;;;;16.19;100.00;97498.72;5084587;28;20044;-77
2021/08/19 02:21:39;;;;;;;5.40;3.53;;;;;;;16.19;100.00;97493.25;5071156;28;20135;-76
2021/08/19 02:24:06;;;;;;;6.15;4.03;;;;;;;16.16;100.00;97488.50;5069966;28;20049;-77
2021/08/19 02:26:33;;;;;;;7.30;3.90;;;;;;;16.16;100.00;97493.16;5070471;28;20147;-76
2021/08/19 02:29:01;;;;;;;7.03;3.83;;;;;;;16.21;100.00;97498.34;5069896;28;20064;-77
2021/08/19 02:31:30;;;;;;;5.40;3.72;;;;;;;16.17;100.00;97495.56;5069538;28;20481;-78
2021/08/19 02:33:57;;;;;;;5.05;3.58;;;;;;;16.25;100.00;97510.16;5070370;28;20052;-78
2021/08/19 02:36:23;;;;;;;4.90;3.88;;;;;;;16.23;100.00;97508.94;5072844;28;20044;-78
2021/08/19 02:38:50;;;;;;;6.35;3.72;;;;;;;16.19;100.00;97498.72;5072840;28;20114;-78
2021/08/19 02:41:16;;;;;;;4.88;3.50;;;;;;;16.21;100.00;97503.81;5071778;28;20052;-78
2021/08/19 02:43:43;;;;;;;4.47;3.35;;;;;;;16.21;100.00;97503.81;5086474;28;20525;-77
2021/08/19 02:46:11;;;;;;;6.47;3.92;;;;;;;16.20;100.00;97508.50;5085165;28;20131;-77
2021/08/19 02:48:38;;;;;;;6.68;3.72;;;;;;;16.17;100.00;97495.56;5068625;28;20048;-77
2021/08/19 02:51:04;;;;;;;4.85;3.38;;;;;;;16.21;100.00;97490.94;5070306;28;20040;-77
2021/08/19 02:53:31;;;;;;;4.63;3.65;;;;;;;16.13;100.00;97486.47;5069554;28;20053;-77
2021/08/19 02:55:57;;;;;;;6.07;3.33;;;;;;;16.14;100.00;97487.25;5068139;28;20045;-77
2021/08/19 02:58:24;;;;;;;4.85;3.80;;;;;;;16.15;100.00;97488.88;5085665;28;20559;-76
2021/08/19 03:00:51;;;;;;;4.60;3.58;;;;;;;16.12;100.00;97482.16;5069000;28;20116;-77
2021/08/19 03:03:17;;;;;;;4.82;3.40;;;;;;;16.09;100.00;97482.06;5068182;28;20527;-78
2021/08/19 03:05:44;;;;;;;3.75;3.00;;;;;;;16.12;100.00;97478.63;5070326;28;20037;-76
2021/08/19 03:08:11;;;;;;;4.13;3.28;;;;;;;16.13;100.00;97483.72;5068685;28;20502;-77
2021/08/19 03:10:38;;;;;;;4.38;3.08;;;;;;;16.07;100.00;97482.44;5085062;28;20093;-77
2021/08/19 03:13:04;;;;;;;4.93;3.33;;;;;;;16.04;100.00;97477.69;5067859;28;20040;-78
2021/08/19 03:15:31;;;;;;;4.85;3.08;;;;;;;16.04;100.00;97488.59;5067839;28;20254;-77
2021/08/19 03:17:57;;;;;;;4.43;2.95;;;;;;;16.04;100.00;97479.63;5068226;28;20045;-78
2021/08/19 03:20:25;;;;;;;4.35;3.08;;;;;;;16.01;100.00;97478.38;5069526;28;20143;-77
2021/08/19 03:22:52;;;;;;;7.22;3.17;;;;;;;16.01;100.00;97480.31;5069858;28;20075;-78
2021/08/19 03:25:20;;;;;;;7.10;3.10;;;;;;;16.05;100.00;97476.50;5069457;28;20703;-77
2021/08/19 03:27:46;;;;;;;5.53;3.03;;;;;;;16.03;100.00;97484.28;5068484;28;20140;-77
2021/08/19 03:30:13;;;;;;;3.40;2.85;;;;;;;16.06;100.00;97480.03;5068444;28;20048;-75
2021/08/19 03:32:40;;;;;;;5.97;2.85;;;;;;;16.09;100.00;97485.59;5081572;28;20063;-78
2021/08/19 03:35:08;;;;;;;4.50;3.20;;;;;;;16.04;100.00;97474.16;5062021;28;20044;-76
2021/08/19 03:37:35;;;;;;;3.15;2.70;;;;;;;16.03;100.00;97487.00;5059817;28;20049;-77
2021/08/19 03:40:04;;;;;;;5.55;3.50;;;;;;;16.03;100.00;97484.28;5056739;28;20048;-76
2021/08/19 03:42:30;;;;;;;3.80;2.95;;;;;;;16.02;100.00;97481.91;5077220;28;20050;-78
2021/08/19 03:44:57;;;;;;;5.07;3.10;;;;;;;15.99;100.00;97483.41;5066450;23;20053;-75
2021/08/19 03:47:23;;;;;;;3.67;2.90;;;;;;;16.02;100.00;97485.44;5030287;28;20037;-76
2021/08/19 03:49:50;;;;;;;7.97;3.10;;;;;;;16.02;100.00;97493.63;5030140;28;20079;-76
2021/08/19 03:52:16;;;;;;;9.07;3.10;;;;;;;16.02;100.00;97498.28;5029327;28;20049;-76
2021/08/19 03:54:43;;;;;;;3.97;2.92;;;;;;;16.05;100.00;97494.88;5028280;28;20053;-77
2021/08/19 03:57:10;;;;;;;6.68;2.83;;;;;;;16.08;100.00;97492.19;5009597;28;20404;-77
2021/08/19 03:59:36;;;;;;;6.60;3.25;;;;;;;16.03;100.00;97484.28;5010837;28;20045;-77
2021/08/19 04:02:04;;;;;;;4.38;3.05;;;;;;;16.06;100.00;97485.50;5010020;28;20109;-76
2021/08/19 04:04:31;;;;;;;5.57;3.15;;;;;;;16.08;100.00;97488.66;5009606;28;20049;-76
2021/08/19 04:06:57;;;;;;;5.20;3.17;;;;;;;16.09;100.00;97485.59;5026188;28;20052;-77
2021/08/19 04:09:24;;;;;;;4.88;3.22;;;;;;;16.10;100.00;97487.16;5010084;28;20406;-76
2021/08/19 04:11:51;;;;;;;4.25;2.90;;;;;;;16.11;100.00;97491.50;5007138;28;20120;-78
2021/08/19 04:14:17;;;;;;;4.47;3.20;;;;;;;16.07;100.00;97490.63;5026746;28;20042;-77
2021/08/19 04:16:44;;;;;;;4.85;3.10;;;;;;;16.07;100.00;97481.63;5026009;28;20061;-77
2021/08/19 04:19:10;;;;;;;6.28;3.20;;;;;;;16.10;100.00;97489.91;5011250;28;20072;-77
2021/08/19 04:21:37;;;;;;;3.78;2.90;;;;;;;16.08;100.00;97484.00;5010363;28;20644;-77
2021/08/19 04:24:04;;;;;;;4.50;3.30;;;;;;;16.17;100.00;97481.91;5010426;28;20736;-76
2021/08/19 04:26:30;;;;;;;5.18;2.97;;;;;;;16.18;100.00;97494.38;5010278;28;20046;-76
2021/08/19 04:28:57;;;;;;;4.97;3.05;;;;;;;16.22;100.00;97494.47;5010069;28;20046;-76
2021/08/19 04:31:23;;;;;;;5.10;2.92;;;;;;;16.26;100.00;97503.53;5008525;28;20688;-76
2021/08/19 04:33:50;;;;;;;4.20;3.13;;;;;;;16.25;100.00;97495.72;5023655;28;20061;-76
2021/08/19 04:36:17;;;;;;;5.68;3.20;;;;;;;16.26;100.00;97500.81;5010082;28;20042;-77
2021/08/19 04:38:43;;;;;;;3.92;3.03;;;;;;;16.23;100.00;97487.88;5009889;28;20077;-76
2021/08/19 04:41:10;;;;;;;4.10;3.15;;;;;;;16.25;100.00;97496.50;5009900;28;20061;-76
2021/08/19 04:43:36;;;;;;;5.57;2.83;;;;;;;16.25;100.00;97490.25;5009661;28;20045;-76
2021/08/19 04:46:03;;;;;;;3.17;2.63;;;;;;;16.27;100.00;97490.69;5009768;28;20574;-77
2021/08/19 04:48:29;;;;;;;5.68;2.80;;;;;;;16.28;100.00;97500.47;5010047;28;20129;-76
2021/08/19 04:50:56;;;;;;;5.97;2.80;;;;;;;16.28;100.00;97484.88;5010182;28;20049;-77
2021/08/19 04:53:23;;;;;;;5.03;2.75;;;;;;;16.30;100.00;97493.50;5008575;28;20406;-75
2021/08/19 04:55:50;;;;;;;4.78;2.72;;;;;;;16.30;100.00;97484.50;5009309;28;20096;-76
2021/08/19 04:58:18;;;;;;;5.38;2.83;;;;;;;16.38;100.00;97487.06;5009258;28;20034;-75
2021/08/19 05:00:45;;;;;;;3.72;2.60;;;;;;;16.37;100.00;97493.66;5006469;28;20045;-76
2021/08/19 05:03:12;;;;;;;5.63;3.25;;;;;;;16.38;100.00;97494.47;5040373;28;20041;-76
2021/08/19 05:05:38;;;;;;;5.85;3.00;;;;;;;16.36;100.00;97485.81;5010335;28;20072;-77
2021/08/19 05:08:05;;;;;;;6.25;2.83;;;;;;;16.31;100.00;97497.81;5012916;28;20063;-77
2021/08/19 05:10:31;;;;;;;4.90;2.72;;;;;;;16.25;100.00;97490.25;5008398;28;20045;-77
2021/08/19 05:12:58;;;;;;;4.55;3.17;;;;;;;16.27;100.00;97502.41;5009429;28;20510;-76
2021/08/19 05:15:25;;;;;;;3.42;2.50;;;;;;;16.28;100.00;97501.28;5008557;28;20494;-77
2021/08/19 05:17:52;;;;;;;5.65;2.60;;;;;;;16.26;100.00;97498.06;5008663;28;20056;-77
2021/08/19 05:20:20;;;;;;;4.45;2.47;;;;;;;16.27;100.00;97498.88;5009431;28;20054;-77
2021/08/19 05:22:46;;;;;;;5.25;2.60;;;;;;;16.29;100.00;97502.84;5009259;28;20073;-76
2021/08/19 05:25:14;;;;;;;4.07;2.47;;;;;;;16.29;100.00;97494.63;5040236;28;20033;-77
2021/08/19 05:27:40;;;;;;;4.97;2.55;;;;;;;16.27;100.00;97499.66;5009967;28;20049;-77
2021/08/19 05:30:09;;;;;;;5.13;2.60;;;;;;;16.28;100.00;97506.72;5013678;28;20572;-77
2021/08/19 05:32:36;;;;;;;5.25;2.65;;;;;;;16.32;100.00;97504.06;5012427;28;20077;-77
2021/08/19 05:35:04;;;;;;;6.35;2.78;;;;;;;16.33;100.00;97498.25;5012826;28;20077;-77
2021/08/19 05:37:32;;;;;;;3.05;2.60;;;;;;;16.33;100.00;97501.00;5013084;28;20616;-77
2021/08/19 05:39:59;;;;;;;3.58;2.58;;;;;;;16.37;100.00;97507.31;5013484;28;20605;-77
2021/08/19 05:42:26;;;;;;;4.05;2.50;;;;;;;16.36;100.00;97507.69;5011738;28;20407;-77
2021/08/19 05:44:52;;;;;;;5.18;2.65;;;;;;;16.37;100.00;97490.13;5012720;28;20045;-76
2021/08/19 05:47:19;;;;;;;4.65;2.58;;;;;;;16.38;100.00;97498.00;5011937;28;20515;-77
2021/08/19 05:49:46;;;;;;;3.70;2.47;;;;;;;16.42;100.00;97504.31;5012659;28;20057;-77
2021/08/19 05:52:15;;;;;;;6.22;2.47;;;;;;;16.47;100.00;97512.22;5029003;28;20519;-76
2021/08/19 05:54:41;;;;;;;4.82;2.50;;;;;;;16.55;100.00;97511.28;5013390;28;20050;-77
2021/08/19 05:57:09;;;;;;;5.43;2.83;;;;;;;16.56;100.00;97512.06;5018040;28;20038;-77
2021/08/19 05:59:36;;;;;;;5.28;2.50;;;;;;;16.60;100.00;97513.72;5013755;28;20650;-77
2021/08/19 06:02:02;;;;;;;5.10;2.60;;;;;;;16.55;100.00;97515.94;5013123;28;20115;-77
2021/08/19 06:04:29;;;;;;;4.93;2.55;;;;;;;16.59;100.00;97512.16;5027665;28;20124;-78
2021/08/19 06:06:56;;;;;;;4.07;2.60;;;;;;;16.63;100.00;97514.97;5013683;28;20134;-77
2021/08/19 06:09:22;;;;;;;5.10;2.75;;;;;;;16.60;100.00;97516.47;5014284;28;20042;-76
2021/08/19 06:11:49;;;;;;;4.85;2.78;;;;;;;16.68;100.00;97509.22;5014673;28;20044;-76
2021/08/19 06:14:16;;;;;;;7.03;2.45;;;;;;;16.75;100.00;97514.81;5016161;28;20503;-77
2021/08/19 06:16:42;;;;;;;5.35;2.85;;;;;;;16.84;100.00;97526.38;5012076;28;20060;-78
2021/08/19 06:19:09;;;;;;;3.85;2.35;;;;;;;16.92;100.00;97530.84;5013983;28;20472;-78
2021/08/19 06:21:36;;;;;;;3.83;2.45;;;;;;;16.90;100.00;97514.00;5016661;28;20462;-78
2021/08/19 06:24:03;;;;;;;3.15;2.45;;;;;;;16.91;100.00;97521.03;5012705;28;20042;-78
2021/08/19 06:26:29;;;;;;;5.80;2.70;;;;;;;16.93;100.00;97513.28;5012763;28;20041;-77
2021/08/19 06:28:56;;;;;;;6.22;2.78;;;;;;;16.96;100.00;97520.75;5014419;28;20042;-78
2021/08/19 06:31:23;;;;;;;5.05;2.50;;;;;;;17.07;100.00;97518.25;4995868;28;20045;-78
2021/08/19 06:33:49;;;;;;;4.40;2.35;;;;;;;17.21;100.00;97524.81;5012527;28;20478;-79
2021/08/19 06:36:16;;;;;;;4.55;2.45;;;;;;;17.30;100.00;97519.09;5011119;28;20046;-78
2021/08/19 06:38:42;;;;;;;3.83;2.20;;;;;;;17.43;100.00;97529.53;5011658;28;20062;-78
2021/08/19 06:41:09;;;;;;;7.32;2.40;;;;;;;17.53;100.00;97524.66;5013355;28;20053;-78
2021/08/19 06:43:36;;;;;;;7.15;2.33;;;;;;;17.53;100.00;97516.44;5012224;28;20153;-79
2021/08/19 06:46:02;;;;;;;2.67;2.03;;;;;;;17.68;100.00;97516.34;5027736;28;20042;-76
2021/08/19 06:48:30;;;;;;;4.75;2.20;;;;;;;17.65;100.00;97517.09;5027801;28;20056;-75
2021/08/19 06:50:56;;;;;;;5.13;2.30;;;;;;;17.58;100.00;97508.72;5011106;28;20073;-79
2021/08/19 06:53:23;;;;;;;4.38;2.58;;;;;;;17.40;100.00;97513.84;5014169;28;20046;-78
2021/08/19 06:55:50;;;;;;;3.17;2.20;;;;;;;17.44;100.00;97516.66;5029610;28;20076;-79
2021/08/19 06:58:17;;;;;;;3.63;2.53;;;;;;;17.30;100.00;97519.09;5013388;28;20046;-78
2021/08/19 07:00:45;;;;;;;6.25;2.33;;;;;;;17.18;100.00;97522.81;5014645;28;20387;-77
2021/08/19 07:03:14;;;;;;;5.20;2.97;;;;;;;17.19;100.00;97521.63;5012517;28;20050;-78
2021/08/19 07:05:45;;;;;;;2.97;2.30;;;;;;;17.32;100.00;97525.81;5010560;28;20072;-77
2021/08/19 07:08:12;;;;;;;3.08;2.00;;;;;;;17.53;100.00;97530.13;5013859;28;20708;-77
2021/08/19 07:10:39;;;;;;;3.50;2.60;;;;;;;17.81;100.00;97545.13;5028031;28;20042;-77
2021/08/19 07:13:05;;;;;;;3.15;1.88;;;;;;;18.03;100.00;97538.09;5014185;28;20065;-78
2021/08/19 07:15:33;;;;;;;3.40;2.10;;;;;;;18.02;100.00;97539.25;5013302;28;20509;-78
2021/08/19 07:18:00;;;;;;;4.95;2.40;;;;;;;18.18;100.00;97545.41;5013373;28;20622;-76
2021/08/19 07:20:27;;;;;;;4.65;2.10;;;;;;;18.35;100.00;97533.16;5016568;28;20048;-77
2021/08/19 07:22:54;;;;;;;2.58;2.20;;;;;;;18.38;100.00;97537.88;5014458;28;20037;-77
2021/08/19 07:25:22;;;;;;;4.72;2.30;;;;;;;18.41;100.00;97535.19;5022649;28;20411;-79
2021/08/19 07:27:49;;;;;;;3.50;2.00;;;;;;;18.47;100.00;97542.00;5023192;28;20088;-77
2021/08/19 07:30:18;;;;;;;8.23;2.13;;;;;;;18.32;100.00;97531.94;5017047;28;20046;-77
2021/08/19 07:32:45;;;;;;;4.85;1.98;;;;;;;18.53;100.00;97537.75;4996857;28;20058;-78
2021/08/19 07:35:13;;;;;;;2.50;1.90;;;;;;;18.41;100.00;97537.16;4996364;28;20042;-76
2021/08/19 07:37:45;;;;;;;2.35;1.90;;;;;;;18.40;100.00;97538.31;5016279;28;20096;-77
2021/08/19 07:40:12;;;;;;;2.25;1.70;;;;;;;18.21;100.00;97538.41;5012739;28;20439;-78
2021/08/19 07:42:39;;;;;;;2.83;1.92;;;;;;;18.14;100.00;97539.06;5016830;28;20117;-76
2021/08/19 07:45:08;;;;;;;4.75;1.95;;;;;;;18.20;100.00;97539.53;5016831;28;20110;-76
2021/08/19 07:47:35;;;;;;;4.63;1.90;;;;;;;17.82;100.00;97534.97;5016738;28;20042;-78
2021/08/19 07:50:03;;;;;;;2.65;2.10;;;;;;;17.73;100.00;97543.44;5028015;28;20050;-78
2021/08/19 07:52:31;;;;;;;5.78;2.00;;;;;;;17.76;100.00;97545.44;5015908;28;20588;-78
2021/08/19 07:54:58;;;;;;;4.30;2.00;;;;;;;17.73;100.00;97551.63;5014724;28;20056;-78
2021/08/19 07:57:24;;;;;;;2.58;1.83;;;;;;;17.77;100.00;97543.50;5014961;28;20450;-77
2021/08/19 07:59:51;;;;;;;4.05;2.00;;;;;;;17.80;100.00;97551.00;5018751;28;20049;-77
2021/08/19 08:02:20;;;;;;;4.90;2.28;;;;;;;17.78;100.00;97545.09;5019096;28;20049;-78
2021/08/19 08:04:47;;;;;;;2.25;1.77;;;;;;;18.09;100.00;97557.78;5029261;28;20042;-77
2021/08/19 08:07:14;;;;;;;3.42;2.30;;;;;;;17.98;100.00;97552.91;5017399;28;20100;-76
2021/08/19 08:09:41;;;;;;;5.15;2.13;;;;;;;17.92;100.00;97561.78;5018387;28;20050;-77
2021/08/19 08:12:08;;;;;;;5.22;2.13;;;;;;;17.93;100.00;97558.69;5019221;28;20404;-77
2021/08/19 08:14:35;;;;;;;4.38;2.00;;;;;;;17.90;100.00;97553.13;5016627;28;20133;-78
2021/08/19 08:17:01;;;;;;;3.30;2.05;;;;;;;17.88;100.00;97544.50;5012726;28;20300;-77
2021/08/19 08:19:30;;;;;;;4.38;2.03;;;;;;;17.91;100.00;97560.97;5049584;28;20057;-78
2021/08/19 08:21:57;;;;;;;4.55;2.28;;;;;;;17.95;100.00;97559.09;5019270;28;20053;-78
2021/08/19 08:24:24;;;;;;;4.05;2.03;;;;;;;18.14;100.00;97568.44;5017832;28;20524;-76
2021/08/19 08:26:51;;;;;;;4.93;2.15;;;;;;;18.17;100.00;97567.69;5014443;28;20041;-78
2021/08/19 08:29:19;;;;;;;2.85;1.90;;;;;;;18.14;100.00;97554.72;5014584;28;20046;-78
2021/08/19 08:31:46;;;;;;;3.63;2.15;;;;;;;18.26;100.00;97560.81;5026204;28;20056;-77
2021/08/19 08:34:12;;;;;;;4.32;2.25;;;;;;;17.99;100.00;97570.91;5022366;28;20543;-78
2021/08/19 08:36:39;;;;;;;3.60;1.90;;;;;;;18.10;100.00;97567.56;5035448;28;20042;-79
2021/08/19 08:39:06;;;;;;;3.28;2.00;;;;;;;18.18;100.00;97572.00;5034764;28;20042;-79
2021/08/19 08:41:33;;;;;;;4.60;1.92;;;;;;;18.20;100.00;97577.91;5018982;28;20046;-78
2021/08/19 08:44:00;;;;;;;3.97;2.20;;;;;;;18.35;100.00;97568.78;5028352;28;20075;-76
2021/08/19 08:46:28;;;;;;;3.50;1.92;;;;;;;18.32;100.00;97575.00;5010440;28;20050;-77
2021/08/19 08:48:56;;;;;;;4.80;2.17;;;;;;;18.35;100.00;97577.00;5010932;28;20042;-77
2021/08/19 08:51:25;;;;;;;8.90;2.10;;;;;;;18.48;100.00;97579.19;5010829;28;20064;-77
2021/08/19 08:53:52;;;;;;;5.97;2.00;;;;;;;18.58;100.00;97586.03;5013434;28;20050;-77
2021/08/19 08:56:23;;;;;;;5.47;1.90;;;;;;;18.66;100.00;97580.25;5017683;28;20100;-76
2021/08/19 08:58:51;;;;;;;2.30;1.58;;;;;;;18.47;100.00;97571.34;5029708;28;20717;-77
2021/08/19 09:01:17;;;;;;;2.80;1.80;;;;;;;18.50;100.00;97582.38;5014631;28;20041;-78
2021/08/19 09:03:44;;;;;;;2.92;1.80;;;;;;;18.86;100.00;97580.16;5013237;28;20062;-77
2021/08/19 09:06:11;;;;;;;2.80;1.75;;;;;;;18.88;100.00;97591.56;5028265;28;20050;-77
2021/08/19 09:08:50;;;;;;;3.25;1.80;;;;;;;18.66;100.00;97587.69;5013956;28;20045;-77
2021/08/19 09:11:17;;;;;;;3.38;2.00;;;;;;;18.59;100.00;97577.41;5014378;28;20050;-77
2021/08/19 09:13:44;;;;;;;4.07;1.90;;;;;;;18.85;100.00;97587.59;5010181;28;20046;-79
2021/08/19 09:16:18;;;;;;;6.65;2.03;;;;;;;18.84;100.00;97593.47;5009335;28;20052;-77
2021/08/19 09:18:46;;;;;;;3.05;2.00;;;;;;;18.97;100.00;97587.38;5025725;28;20042;-78
2021/08/19 09:21:22;;;;;;;4.43;2.20;;;;;;;18.62;100.00;97586.88;5043838;28;20074;-77
2021/08/19 09:24:12;;;;;;;5.47;1.88;;;;;;;18.64;100.00;97590.81;5009895;28;20045;-77
2021/08/19 09:26:39;;;;;;;2.92;2.00;;;;;;;18.76;100.00;97597.25;5009622;28;20046;-77
2021/08/19 09:29:25;;;;;;;3.15;1.80;;;;;;;18.70;100.00;97602.28;5010141;28;20050;-78
2021/08/19 09:31:55;;;;;;;4.10;2.35;;;;;;;18.31;100.00;97607.09;5011343;28;20046;-77
2021/08/19 09:34:23;;;;;;;4.78;2.40;;;;;;;17.87;100.00;97608.63;5011803;28;20722;-79
2021/08/19 09:37:01;;;;;;;4.93;3.13;;;;;;;17.02;100.00;97623.28;5011176;28;20038;-77
2021/08/19 09:39:38;;;;;;;5.75;3.35;;;;;;;16.60;100.00;97630.47;5009399;28;20069;-77
2021/08/19 09:42:06;;;;;;;6.03;4.07;;;;;;;16.52;100.00;97634.13;5009694;28;20049;-78
2021/08/19 09:44:39;;;;;;;6.32;4.03;;;;;;;16.40;100.00;97635.03;5009682;28;20052;-77
2021/08/19 09:47:33;;;;;;;6.60;4.30;;;;;;;16.42;100.00;97630.00;5008078;28;20038;-76
2021/08/19 09:50:20;;;;;;;5.85;4.30;;;;;;;16.62;100.00;97628.97;5009725;28;20539;-76
2021/08/19 09:52:51;;;;;;;6.40;4.43;;;;;;;16.81;100.00;97634.50;5010393;28;20046;-77
2021/08/19 09:55:19;;;;;;;8.48;4.20;;;;;;;16.93;100.00;97632.81;5010565;28;20650;-76
2021/08/19 09:57:46;;;;;;;8.45;4.35;;;;;;;17.09;100.00;97630.81;5013056;28;20108;-77
2021/08/19 10:00:23;;;;;;;6.95;4.30;;;;;;;16.97;100.00;97623.53;5009831;28;20141;-77
2021/08/19 10:02:49;;;;;;;7.18;3.80;;;;;;;16.95;100.00;97630.53;5009682;28;20124;-79
2021/08/19 10:05:17;;;;;;;10.88;4.07;;;;;;;16.85;100.00;97628.34;5009762;28;20045;-79
2021/08/19 10:07:44;;;;;;;9.57;4.68;;;;;;;16.88;100.00;97631.13;5010012;28;20042;-78
2021/08/19 10:10:11;;;;;;;6.80;4.05;;;;;;;16.90;100.00;97617.13;5024725;28;20045;-77
2021/08/19 10:12:41;;;;;;;7.22;4.30;;;;;;;17.10;100.00;97627.75;5025310;23;20390;-76
2021/08/19 10:15:10;;;;;;;7.57;4.28;;;;;;;17.29;100.00;97630.50;5026913;28;20228;-76
2021/08/19 10:17:39;;;;;;;5.47;3.67;;;;;;;17.56;100.00;97620.53;5046034;28;20455;-75
2021/08/19 10:20:10;;;;;;;6.50;3.75;;;;;;;17.94;100.00;97601.34;5046089;28;20049;-76
2021/08/19 10:22:38;;;;;;;4.97;3.60;;;;;;;18.50;100.00;97598.84;5003087;28;20108;-76
2021/08/19 10:25:05;;;;;;;6.47;3.10;;;;;;;18.69;100.00;97597.94;5012076;28;20320;-78
2021/08/19 10:27:33;;;;;;;3.03;2.30;;;;;;;18.80;100.00;97585.19;5008597;28;20045;-76
2021/08/19 10:30:06;;;;;;;4.15;2.45;;;;;;;18.89;100.00;97588.44;5010695;28;20491;-76
2021/08/19 10:32:46;;;;;;;3.15;2.20;;;;;;;19.17;100.00;97580.63;5008543;28;20144;-76
2021/08/19 10:35:14;;;;;;;3.75;2.47;;;;;;;19.29;100.00;97571.34;5009423;28;20049;-75
2021/08/19 10:37:47;;;;;;;3.45;2.30;;;;;;;19.26;100.00;97577.56;5008940;28;20423;-76
2021/08/19 10:40:23;;;;;;;3.25;2.28;;;;;;;19.26;100.00;97586.63;5009390;28;20136;-76
2021/08/19 10:42:58;;;;;;;2.45;1.60;;;;;;;19.29;100.00;97569.41;5010257;28;20042;-76
2021/08/19 10:45:28;;;;;;;4.05;1.70;;;;;;;19.17;100.00;97585.31;5010820;28;20100;-76
2021/08/19 10:48:01;;;;;;;3.78;1.90;;;;;;;19.44;100.00;97578.63;5009549;28;20088;-77
2021/08/19 10:50:40;;;;;;;3.65;1.73;;;;;;;19.48;100.00;97570.44;5042658;28;20073;-77
2021/08/19 10:53:13;;;;;;;4.60;1.75;;;;;;;19.77;100.00;97573.13;5009233;28;20069;-78
2021/08/19 10:55:46;;;;;;;2.17;1.52;;;;;;;19.86;100.00;97570.88;4993553;28;20046;-77
2021/08/19 10:58:33;;;;;;;2.33;1.80;;;;;;;20.04;100.00;97570.25;5010275;28;20045;-77
2021/08/19 11:01:15;;;;;;;2.65;1.98;;;;;;;20.07;100.00;97578.53;5012921;28;20046;-76
2021/08/19 11:03:47;;;;;;;4.78;1.98;;;;;;;20.05;100.00;97577.34;5009873;28;20363;-76
2021/08/19 11:06:26;;;;;;;2.88;1.70;;;;;;;19.84;100.00;97573.22;5009891;28;20053;-76
2021/08/19 11:08:54;;;;;;;4.50;1.95;;;;;;;20.16;100.00;97567.22;5008537;28;20054;-77
2021/08/19 11:11:26;;;;;;;4.43;1.65;;;;;;;20.39;100.00;97576.09;5008185;28;20204;-77
2021/08/19 11:13:59;;;;;;;2.25;1.63;;;;;;;20.24;100.00;97580.69;5011097;28;20042;-75
2021/08/19 11:16:26;;;;;;;4.80;1.85;;;;;;;20.27;100.00;97574.44;5009859;28;20400;-75
2021/08/19 11:18:53;;;;;;;2.63;1.75;;;;;;;20.11;100.00;97570.31;5008921;28;20054;-77
2021/08/19 11:21:20;;;;;;;2.30;1.70;;;;;;;20.24;100.00;97568.91;5008399;28;20057;-76
2021/08/19 11:23:46;;;;;;;2.95;1.70;;;;;;;20.27;100.00;97573.66;5008668;28;20407;-76
2021/08/19 11:26:19;;;;;;;2.70;1.75;;;;;;;20.25;100.00;97567.75;5007690;28;20060;-76
2021/08/19 11:28:48;;;;;;;2.67;1.83;;;;;;;20.22;100.00;97577.50;5009934;28;20042;-78